sensor_id;sensor_type;location;lat;lon;timestamp;P1;durP1;ratioP1;P2;durP2;ratioP2
18239;SDS011;9244;50.828;4.718;2024-01-30T00:02:24;4.13;;;3.73;;
18239;SDS011;9244;50.828;4.718;2024-01-30T00:04:51;5.23;;;4.40;;
18239;SDS011;9244;50.828;4.718;2024-01-30T00:07:17;5.00;;;4.17;;
18239;SDS011;9244;50.828;4.718;2024-01-30T00:09:43;7.20;;;3.93;;
18239;SDS011;9244;50.828;4.718;2024-01-30T00:12:11;6.50;;;4.00;;
18239;SDS011;9244;50.828;4.718;2024-01-30T00:14:41;5.23;;;3.90;;
18239;SDS011;9244;50.828;4.718;2024-01-30T00:17:08;5.43;;;3.97;;
18239;SDS011;9244;50.828;4.718;2024-01-30T00:19:36;5.03;;;4.00;;
18239;SDS011;9244;50.828;4.718;2024-01-30T00:22:01;4.73;;;3.37;;
18239;SDS011;9244;50.828;4.718;2024-01-30T00:24:27;4.67;;;4.20;;
18239;SDS011;9244;50.828;4.718;2024-01-30T00:26:53;6.83;;;3.50;;
18239;SDS011;9244;50.828;4.718;2024-01-30T00:29:19;5.90;;;4.10;;
18239;SDS011;9244;50.828;4.718;2024-01-30T00:31:45;5.07;;;3.67;;
18239;SDS011;9244;50.828;4.718;2024-01-30T00:34:11;5.67;;;3.60;;
18239;SDS011;9244;50.828;4.718;2024-01-30T00:36:37;4.77;;;3.70;;
18239;SDS011;9244;50.828;4.718;2024-01-30T00:39:02;7.50;;;4.10;;
18239;SDS011;9244;50.828;4.718;2024-01-30T00:41:31;4.83;;;3.90;;
18239;SDS011;9244;50.828;4.718;2024-01-30T00:43:57;5.17;;;3.27;;
18239;SDS011;9244;50.828;4.718;2024-01-30T00:46:23;4.13;;;3.67;;
18239;SDS011;9244;50.828;4.718;2024-01-30T00:48:48;6.13;;;3.90;;
18239;SDS011;9244;50.828;4.718;2024-01-30T00:51:19;3.70;;;3.30;;
18239;SDS011;9244;50.828;4.718;2024-01-30T00:53:45;3.60;;;2.97;;
18239;SDS011;9244;50.828;4.718;2024-01-30T00:56:10;4.23;;;3.47;;
18239;SDS011;9244;50.828;4.718;2024-01-30T00:58:36;4.17;;;3.83;;
18239;SDS011;9244;50.828;4.718;2024-01-30T01:01:02;4.07;;;3.17;;
18239;SDS011;9244;50.828;4.718;2024-01-30T01:03:27;4.93;;;4.33;;
18239;SDS011;9244;50.828;4.718;2024-01-30T01:05:53;4.10;;;2.63;;
18239;SDS011;9244;50.828;4.718;2024-01-30T01:08:19;6.50;;;3.90;;
18239;SDS011;9244;50.828;4.718;2024-01-30T01:10:45;5.57;;;4.43;;
18239;SDS011;9244;50.828;4.718;2024-01-30T01:13:11;4.47;;;3.30;;
18239;SDS011;9244;50.828;4.718;2024-01-30T01:15:39;6.23;;;4.37;;
18239;SDS011;9244;50.828;4.718;2024-01-30T01:18:07;5.13;;;3.93;;
18239;SDS011;9244;50.828;4.718;2024-01-30T01:20:33;5.90;;;4.47;;
18239;SDS011;9244;50.828;4.718;2024-01-30T01:22:58;4.13;;;3.73;;
18239;SDS011;9244;50.828;4.718;2024-01-30T01:25:24;4.00;;;3.50;;
18239;SDS011;9244;50.828;4.718;2024-01-30T01:27:50;4.60;;;3.73;;
18239;SDS011;9244;50.828;4.718;2024-01-30T01:30:21;4.53;;;3.83;;
18239;SDS011;9244;50.828;4.718;2024-01-30T01:32:47;5.67;;;4.00;;
18239;SDS011;9244;50.828;4.718;2024-01-30T01:35:23;5.17;;;3.83;;
18239;SDS011;9244;50.828;4.718;2024-01-30T01:37:55;5.33;;;3.90;;
18239;SDS011;9244;50.828;4.718;2024-01-30T01:40:22;5.10;;;3.40;;
18239;SDS011;9244;50.828;4.718;2024-01-30T01:42:49;5.17;;;4.17;;
18239;SDS011;9244;50.828;4.718;2024-01-30T01:45:16;6.07;;;3.67;;
18239;SDS011;9244;50.828;4.718;2024-01-30T01:47:42;4.47;;;3.50;;
18239;SDS011;9244;50.828;4.718;2024-01-30T01:50:11;7.17;;;3.47;;
18239;SDS011;9244;50.828;4.718;2024-01-30T01:52:43;3.50;;;3.20;;
18239;SDS011;9244;50.828;4.718;2024-01-30T01:55:12;5.40;;;3.87;;
18239;SDS011;9244;50.828;4.718;2024-01-30T01:57:39;3.90;;;3.10;;
18239;SDS011;9244;50.828;4.718;2024-01-30T02:00:09;5.73;;;3.60;;
18239;SDS011;9244;50.828;4.718;2024-01-30T02:02:39;3.90;;;3.37;;
18239;SDS011;9244;50.828;4.718;2024-01-30T02:05:07;5.77;;;4.10;;
18239;SDS011;9244;50.828;4.718;2024-01-30T02:07:34;6.17;;;3.83;;
18239;SDS011;9244;50.828;4.718;2024-01-30T02:10:02;5.63;;;4.17;;
18239;SDS011;9244;50.828;4.718;2024-01-30T02:12:29;6.07;;;4.10;;
18239;SDS011;9244;50.828;4.718;2024-01-30T02:14:57;6.13;;;4.33;;
18239;SDS011;9244;50.828;4.718;2024-01-30T02:17:23;3.67;;;3.17;;
18239;SDS011;9244;50.828;4.718;2024-01-30T02:19:49;5.80;;;3.87;;
18239;SDS011;9244;50.828;4.718;2024-01-30T02:22:14;6.20;;;3.60;;
18239;SDS011;9244;50.828;4.718;2024-01-30T02:24:40;5.57;;;4.00;;
18239;SDS011;9244;50.828;4.718;2024-01-30T02:27:06;5.53;;;3.57;;
18239;SDS011;9244;50.828;4.718;2024-01-30T02:29:31;7.30;;;3.80;;
18239;SDS011;9244;50.828;4.718;2024-01-30T02:31:59;5.10;;;3.80;;
18239;SDS011;9244;50.828;4.718;2024-01-30T02:34:25;7.90;;;4.57;;
18239;SDS011;9244;50.828;4.718;2024-01-30T02:36:52;7.33;;;5.00;;
18239;SDS011;9244;50.828;4.718;2024-01-30T02:39:18;7.50;;;4.80;;
18239;SDS011;9244;50.828;4.718;2024-01-30T02:41:44;7.43;;;5.37;;
18239;SDS011;9244;50.828;4.718;2024-01-30T02:44:10;5.20;;;4.13;;
18239;SDS011;9244;50.828;4.718;2024-01-30T02:46:36;6.60;;;4.30;;
18239;SDS011;9244;50.828;4.718;2024-01-30T02:49:01;5.90;;;4.47;;
18239;SDS011;9244;50.828;4.718;2024-01-30T02:51:27;4.60;;;3.63;;
18239;SDS011;9244;50.828;4.718;2024-01-30T02:53:55;5.37;;;3.93;;
18239;SDS011;9244;50.828;4.718;2024-01-30T02:56:20;5.83;;;3.73;;
18239;SDS011;9244;50.828;4.718;2024-01-30T02:58:46;4.33;;;3.20;;
18239;SDS011;9244;50.828;4.718;2024-01-30T03:01:12;5.53;;;3.87;;
18239;SDS011;9244;50.828;4.718;2024-01-30T03:03:38;5.77;;;3.77;;
18239;SDS011;9244;50.828;4.718;2024-01-30T03:06:05;5.73;;;3.90;;
18239;SDS011;9244;50.828;4.718;2024-01-30T03:08:32;4.40;;;2.97;;
18239;SDS011;9244;50.828;4.718;2024-01-30T03:10:59;4.43;;;3.60;;
18239;SDS011;9244;50.828;4.718;2024-01-30T03:13:25;5.73;;;3.67;;
18239;SDS011;9244;50.828;4.718;2024-01-30T03:15:51;6.77;;;4.00;;
18239;SDS011;9244;50.828;4.718;2024-01-30T03:18:17;4.50;;;3.87;;
18239;SDS011;9244;50.828;4.718;2024-01-30T03:20:43;5.53;;;4.03;;
18239;SDS011;9244;50.828;4.718;2024-01-30T03:23:08;4.30;;;3.87;;
18239;SDS011;9244;50.828;4.718;2024-01-30T03:25:34;5.63;;;4.23;;
18239;SDS011;9244;50.828;4.718;2024-01-30T03:28:00;4.37;;;3.33;;
18239;SDS011;9244;50.828;4.718;2024-01-30T03:30:25;4.73;;;4.10;;
18239;SDS011;9244;50.828;4.718;2024-01-30T03:32:54;5.33;;;3.57;;
18239;SDS011;9244;50.828;4.718;2024-01-30T03:35:21;6.43;;;3.63;;
18239;SDS011;9244;50.828;4.718;2024-01-30T03:37:49;5.23;;;3.03;;
18239;SDS011;9244;50.828;4.718;2024-01-30T03:40:15;6.87;;;4.07;;
18239;SDS011;9244;50.828;4.718;2024-01-30T03:42:40;5.33;;;3.63;;
18239;SDS011;9244;50.828;4.718;2024-01-30T03:45:09;4.10;;;3.70;;
18239;SDS011;9244;50.828;4.718;2024-01-30T03:47:34;4.17;;;3.57;;
18239;SDS011;9244;50.828;4.718;2024-01-30T03:50:00;6.53;;;4.60;;
18239;SDS011;9244;50.828;4.718;2024-01-30T03:52:25;4.77;;;3.10;;
18239;SDS011;9244;50.828;4.718;2024-01-30T03:54:56;5.10;;;3.73;;
18239;SDS011;9244;50.828;4.718;2024-01-30T03:57:21;6.33;;;4.37;;
18239;SDS011;9244;50.828;4.718;2024-01-30T03:59:47;4.73;;;3.50;;
18239;SDS011;9244;50.828;4.718;2024-01-30T04:02:13;4.63;;;4.03;;
18239;SDS011;9244;50.828;4.718;2024-01-30T04:04:38;4.77;;;3.23;;
18239;SDS011;9244;50.828;4.718;2024-01-30T04:07:06;4.43;;;3.63;;
18239;SDS011;9244;50.828;4.718;2024-01-30T04:09:34;4.90;;;3.80;;
18239;SDS011;9244;50.828;4.718;2024-01-30T04:12:00;4.37;;;3.63;;
18239;SDS011;9244;50.828;4.718;2024-01-30T04:14:27;6.63;;;4.13;;
18239;SDS011;9244;50.828;4.718;2024-01-30T04:16:53;5.73;;;4.03;;
18239;SDS011;9244;50.828;4.718;2024-01-30T04:19:19;4.73;;;3.80;;
18239;SDS011;9244;50.828;4.718;2024-01-30T04:21:45;5.90;;;4.03;;
18239;SDS011;9244;50.828;4.718;2024-01-30T04:24:10;5.37;;;3.43;;
18239;SDS011;9244;50.828;4.718;2024-01-30T04:26:36;5.97;;;3.73;;
18239;SDS011;9244;50.828;4.718;2024-01-30T04:29:02;4.20;;;3.10;;
18239;SDS011;9244;50.828;4.718;2024-01-30T04:31:27;5.00;;;4.37;;
18239;SDS011;9244;50.828;4.718;2024-01-30T04:33:53;4.93;;;4.43;;
18239;SDS011;9244;50.828;4.718;2024-01-30T04:36:22;3.90;;;3.50;;
18239;SDS011;9244;50.828;4.718;2024-01-30T04:38:47;4.73;;;4.23;;
18239;SDS011;9244;50.828;4.718;2024-01-30T04:41:13;4.70;;;3.83;;
18239;SDS011;9244;50.828;4.718;2024-01-30T04:43:43;3.80;;;3.40;;
18239;SDS011;9244;50.828;4.718;2024-01-30T04:46:09;4.73;;;3.83;;
18239;SDS011;9244;50.828;4.718;2024-01-30T04:48:34;5.57;;;3.93;;
18239;SDS011;9244;50.828;4.718;2024-01-30T04:51:00;4.70;;;3.97;;
18239;SDS011;9244;50.828;4.718;2024-01-30T04:53:29;5.53;;;4.00;;
18239;SDS011;9244;50.828;4.718;2024-01-30T04:55:56;4.63;;;4.07;;
18239;SDS011;9244;50.828;4.718;2024-01-30T04:58:21;5.37;;;4.20;;
18239;SDS011;9244;50.828;4.718;2024-01-30T05:00:47;6.43;;;4.70;;
18239;SDS011;9244;50.828;4.718;2024-01-30T05:03:16;4.63;;;4.17;;
18239;SDS011;9244;50.828;4.718;2024-01-30T05:05:42;4.80;;;3.77;;
18239;SDS011;9244;50.828;4.718;2024-01-30T05:08:10;6.07;;;4.60;;
18239;SDS011;9244;50.828;4.718;2024-01-30T05:10:36;5.17;;;4.40;;
18239;SDS011;9244;50.828;4.718;2024-01-30T05:13:04;4.73;;;3.70;;
18239;SDS011;9244;50.828;4.718;2024-01-30T05:15:32;5.53;;;4.13;;
18239;SDS011;9244;50.828;4.718;2024-01-30T05:17:58;4.70;;;3.93;;
18239;SDS011;9244;50.828;4.718;2024-01-30T05:20:24;5.07;;;4.30;;
18239;SDS011;9244;50.828;4.718;2024-01-30T05:22:53;4.20;;;3.80;;
18239;SDS011;9244;50.828;4.718;2024-01-30T05:25:21;5.37;;;3.83;;
18239;SDS011;9244;50.828;4.718;2024-01-30T05:27:46;5.77;;;4.20;;
18239;SDS011;9244;50.828;4.718;2024-01-30T05:30:12;6.73;;;4.07;;
18239;SDS011;9244;50.828;4.718;2024-01-30T05:32:41;6.73;;;4.93;;
18239;SDS011;9244;50.828;4.718;2024-01-30T05:35:06;4.30;;;3.63;;
18239;SDS011;9244;50.828;4.718;2024-01-30T05:37:35;10.03;;;4.40;;
18239;SDS011;9244;50.828;4.718;2024-01-30T05:40:01;4.83;;;4.23;;
18239;SDS011;9244;50.828;4.718;2024-01-30T05:42:29;5.47;;;4.90;;
18239;SDS011;9244;50.828;4.718;2024-01-30T05:44:55;4.13;;;3.70;;
18239;SDS011;9244;50.828;4.718;2024-01-30T05:47:20;5.50;;;4.83;;
18239;SDS011;9244;50.828;4.718;2024-01-30T05:49:46;5.03;;;3.80;;
18239;SDS011;9244;50.828;4.718;2024-01-30T05:52:12;4.63;;;4.23;;
18239;SDS011;9244;50.828;4.718;2024-01-30T05:54:38;5.43;;;4.23;;
18239;SDS011;9244;50.828;4.718;2024-01-30T05:57:03;6.03;;;4.27;;
18239;SDS011;9244;50.828;4.718;2024-01-30T05:59:29;6.80;;;4.67;;
18239;SDS011;9244;50.828;4.718;2024-01-30T06:01:55;5.20;;;4.37;;
18239;SDS011;9244;50.828;4.718;2024-01-30T06:04:20;4.87;;;4.33;;
18239;SDS011;9244;50.828;4.718;2024-01-30T06:06:46;5.53;;;4.40;;
18239;SDS011;9244;50.828;4.718;2024-01-30T06:09:12;5.10;;;4.47;;
18239;SDS011;9244;50.828;4.718;2024-01-30T06:11:40;5.50;;;4.10;;
18239;SDS011;9244;50.828;4.718;2024-01-30T06:14:05;5.53;;;4.50;;
18239;SDS011;9244;50.828;4.718;2024-01-30T06:16:31;6.67;;;4.20;;
18239;SDS011;9244;50.828;4.718;2024-01-30T06:18:56;5.63;;;4.80;;
18239;SDS011;9244;50.828;4.718;2024-01-30T06:21:25;5.70;;;4.90;;
18239;SDS011;9244;50.828;4.718;2024-01-30T06:23:50;6.43;;;4.90;;
18239;SDS011;9244;50.828;4.718;2024-01-30T06:26:18;4.73;;;4.20;;
18239;SDS011;9244;50.828;4.718;2024-01-30T06:28:44;6.53;;;4.67;;
18239;SDS011;9244;50.828;4.718;2024-01-30T06:31:09;5.43;;;4.40;;
18239;SDS011;9244;50.828;4.718;2024-01-30T06:33:35;6.37;;;4.70;;
18239;SDS011;9244;50.828;4.718;2024-01-30T06:36:01;5.20;;;4.70;;
18239;SDS011;9244;50.828;4.718;2024-01-30T06:38:28;6.30;;;4.33;;
18239;SDS011;9244;50.828;4.718;2024-01-30T06:40:56;6.83;;;4.53;;
18239;SDS011;9244;50.828;4.718;2024-01-30T06:43:22;7.50;;;5.20;;
18239;SDS011;9244;50.828;4.718;2024-01-30T06:45:48;7.73;;;4.70;;
18239;SDS011;9244;50.828;4.718;2024-01-30T06:48:16;5.97;;;4.70;;
18239;SDS011;9244;50.828;4.718;2024-01-30T06:50:42;5.53;;;4.17;;
18239;SDS011;9244;50.828;4.718;2024-01-30T06:53:08;7.43;;;5.47;;
18239;SDS011;9244;50.828;4.718;2024-01-30T06:55:33;6.30;;;4.63;;
18239;SDS011;9244;50.828;4.718;2024-01-30T06:58:01;5.13;;;4.40;;
18239;SDS011;9244;50.828;4.718;2024-01-30T07:00:27;6.57;;;4.33;;
18239;SDS011;9244;50.828;4.718;2024-01-30T07:02:53;6.40;;;4.90;;
18239;SDS011;9244;50.828;4.718;2024-01-30T07:05:18;4.83;;;4.33;;
18239;SDS011;9244;50.828;4.718;2024-01-30T07:07:44;5.77;;;4.93;;
18239;SDS011;9244;50.828;4.718;2024-01-30T07:10:10;7.33;;;4.50;;
18239;SDS011;9244;50.828;4.718;2024-01-30T07:12:35;6.50;;;5.10;;
18239;SDS011;9244;50.828;4.718;2024-01-30T07:15:01;9.27;;;5.43;;
18239;SDS011;9244;50.828;4.718;2024-01-30T07:17:28;7.70;;;4.80;;
18239;SDS011;9244;50.828;4.718;2024-01-30T07:19:54;7.57;;;5.30;;
18239;SDS011;9244;50.828;4.718;2024-01-30T07:22:19;6.80;;;5.00;;
18239;SDS011;9244;50.828;4.718;2024-01-30T07:24:47;7.57;;;5.87;;
18239;SDS011;9244;50.828;4.718;2024-01-30T07:27:14;7.23;;;4.90;;
18239;SDS011;9244;50.828;4.718;2024-01-30T07:29:42;7.00;;;5.60;;
18239;SDS011;9244;50.828;4.718;2024-01-30T07:32:08;5.87;;;5.33;;
18239;SDS011;9244;50.828;4.718;2024-01-30T07:34:36;8.00;;;5.07;;
18239;SDS011;9244;50.828;4.718;2024-01-30T07:37:01;8.47;;;5.83;;
18239;SDS011;9244;50.828;4.718;2024-01-30T07:39:27;6.03;;;5.30;;
18239;SDS011;9244;50.828;4.718;2024-01-30T07:41:53;7.90;;;5.10;;
18239;SDS011;9244;50.828;4.718;2024-01-30T07:44:20;6.83;;;5.10;;
18239;SDS011;9244;50.828;4.718;2024-01-30T07:46:46;6.23;;;5.13;;
18239;SDS011;9244;50.828;4.718;2024-01-30T07:49:11;8.13;;;5.50;;
18239;SDS011;9244;50.828;4.718;2024-01-30T07:51:39;7.93;;;5.80;;
18239;SDS011;9244;50.828;4.718;2024-01-30T07:54:11;8.07;;;5.50;;
18239;SDS011;9244;50.828;4.718;2024-01-30T07:56:40;9.90;;;5.00;;
18239;SDS011;9244;50.828;4.718;2024-01-30T07:59:11;10.07;;;6.00;;
18239;SDS011;9244;50.828;4.718;2024-01-30T08:01:37;8.37;;;5.40;;
18239;SDS011;9244;50.828;4.718;2024-01-30T08:04:06;7.40;;;4.80;;
18239;SDS011;9244;50.828;4.718;2024-01-30T08:06:36;8.53;;;5.50;;
18239;SDS011;9244;50.828;4.718;2024-01-30T08:09:04;9.33;;;5.23;;
18239;SDS011;9244;50.828;4.718;2024-01-30T08:11:30;8.33;;;5.03;;
18239;SDS011;9244;50.828;4.718;2024-01-30T08:13:56;6.97;;;5.53;;
18239;SDS011;9244;50.828;4.718;2024-01-30T08:16:24;7.63;;;5.47;;
18239;SDS011;9244;50.828;4.718;2024-01-30T08:18:50;11.13;;;5.33;;
18239;SDS011;9244;50.828;4.718;2024-01-30T08:21:18;8.80;;;5.27;;
18239;SDS011;9244;50.828;4.718;2024-01-30T08:23:44;5.67;;;4.90;;
18239;SDS011;9244;50.828;4.718;2024-01-30T08:26:10;9.70;;;5.23;;
18239;SDS011;9244;50.828;4.718;2024-01-30T08:28:35;13.37;;;6.27;;
18239;SDS011;9244;50.828;4.718;2024-01-30T08:31:03;7.57;;;5.10;;
18239;SDS011;9244;50.828;4.718;2024-01-30T08:33:29;8.77;;;4.67;;
18239;SDS011;9244;50.828;4.718;2024-01-30T08:35:54;9.33;;;5.10;;
18239;SDS011;9244;50.828;4.718;2024-01-30T08:38:20;7.97;;;4.80;;
18239;SDS011;9244;50.828;4.718;2024-01-30T08:40:46;7.93;;;5.17;;
18239;SDS011;9244;50.828;4.718;2024-01-30T08:43:11;8.23;;;4.90;;
18239;SDS011;9244;50.828;4.718;2024-01-30T08:45:37;6.07;;;4.67;;
18239;SDS011;9244;50.828;4.718;2024-01-30T08:48:06;4.03;;;3.63;;
18239;SDS011;9244;50.828;4.718;2024-01-30T08:50:32;7.93;;;5.03;;
18239;SDS011;9244;50.828;4.718;2024-01-30T08:52:58;9.80;;;5.17;;
18239;SDS011;9244;50.828;4.718;2024-01-30T08:55:24;6.57;;;5.03;;
18239;SDS011;9244;50.828;4.718;2024-01-30T08:57:49;6.83;;;4.80;;
18239;SDS011;9244;50.828;4.718;2024-01-30T09:00:17;6.50;;;5.60;;
18239;SDS011;9244;50.828;4.718;2024-01-30T09:02:42;8.27;;;5.57;;
18239;SDS011;9244;50.828;4.718;2024-01-30T09:05:08;8.47;;;5.20;;
18239;SDS011;9244;50.828;4.718;2024-01-30T09:07:36;5.90;;;4.57;;
18239;SDS011;9244;50.828;4.718;2024-01-30T09:10:02;7.77;;;5.27;;
18239;SDS011;9244;50.828;4.718;2024-01-30T09:12:28;8.47;;;4.50;;
18239;SDS011;9244;50.828;4.718;2024-01-30T09:14:54;4.97;;;4.20;;
18239;SDS011;9244;50.828;4.718;2024-01-30T09:17:20;7.00;;;4.73;;
18239;SDS011;9244;50.828;4.718;2024-01-30T09:19:46;8.43;;;5.13;;
18239;SDS011;9244;50.828;4.718;2024-01-30T09:22:14;5.30;;;4.80;;
18239;SDS011;9244;50.828;4.718;2024-01-30T09:24:40;6.60;;;4.83;;
18239;SDS011;9244;50.828;4.718;2024-01-30T09:27:06;6.63;;;4.57;;
18239;SDS011;9244;50.828;4.718;2024-01-30T09:29:33;6.73;;;5.30;;
18239;SDS011;9244;50.828;4.718;2024-01-30T09:32:03;5.70;;;5.17;;
18239;SDS011;9244;50.828;4.718;2024-01-30T09:34:30;7.73;;;5.17;;
18239;SDS011;9244;50.828;4.718;2024-01-30T09:36:56;6.97;;;5.07;;
18239;SDS011;9244;50.828;4.718;2024-01-30T09:39:22;6.17;;;4.93;;
18239;SDS011;9244;50.828;4.718;2024-01-30T09:41:54;7.50;;;5.33;;
18239;SDS011;9244;50.828;4.718;2024-01-30T09:44:27;10.63;;;5.40;;
18239;SDS011;9244;50.828;4.718;2024-01-30T09:46:55;5.97;;;4.90;;
18239;SDS011;9244;50.828;4.718;2024-01-30T09:49:28;9.47;;;5.70;;
18239;SDS011;9244;50.828;4.718;2024-01-30T09:51:56;7.73;;;5.47;;
18239;SDS011;9244;50.828;4.718;2024-01-30T09:54:22;6.43;;;5.03;;
18239;SDS011;9244;50.828;4.718;2024-01-30T09:56:48;7.70;;;5.37;;
18239;SDS011;9244;50.828;4.718;2024-01-30T09:59:14;8.80;;;5.70;;
18239;SDS011;9244;50.828;4.718;2024-01-30T10:01:42;8.67;;;5.70;;
18239;SDS011;9244;50.828;4.718;2024-01-30T10:04:11;6.80;;;5.43;;
18239;SDS011;9244;50.828;4.718;2024-01-30T10:06:39;9.50;;;5.77;;
18239;SDS011;9244;50.828;4.718;2024-01-30T10:09:05;6.60;;;5.80;;
18239;SDS011;9244;50.828;4.718;2024-01-30T10:11:33;6.87;;;5.50;;
18239;SDS011;9244;50.828;4.718;2024-01-30T10:13:59;9.03;;;5.30;;
18239;SDS011;9244;50.828;4.718;2024-01-30T10:16:25;8.57;;;5.33;;
18239;SDS011;9244;50.828;4.718;2024-01-30T10:18:51;12.17;;;4.73;;
18239;SDS011;9244;50.828;4.718;2024-01-30T10:21:17;10.73;;;6.50;;
18239;SDS011;9244;50.828;4.718;2024-01-30T10:23:46;9.40;;;5.83;;
18239;SDS011;9244;50.828;4.718;2024-01-30T10:26:12;7.47;;;5.63;;
18239;SDS011;9244;50.828;4.718;2024-01-30T10:28:40;7.50;;;6.03;;
18239;SDS011;9244;50.828;4.718;2024-01-30T10:31:08;10.53;;;6.20;;
18239;SDS011;9244;50.828;4.718;2024-01-30T10:33:33;7.17;;;6.10;;
18239;SDS011;9244;50.828;4.718;2024-01-30T10:36:04;7.40;;;6.10;;
18239;SDS011;9244;50.828;4.718;2024-01-30T10:38:32;7.77;;;6.90;;
18239;SDS011;9244;50.828;4.718;2024-01-30T10:40:58;9.57;;;6.80;;
18239;SDS011;9244;50.828;4.718;2024-01-30T10:43:30;8.33;;;6.20;;
18239;SDS011;9244;50.828;4.718;2024-01-30T10:48:43;8.00;;;6.63;;
18239;SDS011;9244;50.828;4.718;2024-01-30T10:51:14;9.70;;;5.97;;
18239;SDS011;9244;50.828;4.718;2024-01-30T10:53:40;9.53;;;7.47;;
18239;SDS011;9244;50.828;4.718;2024-01-30T10:56:08;10.57;;;7.90;;
18239;SDS011;9244;50.828;4.718;2024-01-30T10:58:36;10.00;;;6.97;;
18239;SDS011;9244;50.828;4.718;2024-01-30T11:01:03;10.97;;;7.20;;
18239;SDS011;9244;50.828;4.718;2024-01-30T11:03:34;12.47;;;7.60;;
18239;SDS011;9244;50.828;4.718;2024-01-30T11:06:02;10.03;;;6.93;;
18239;SDS011;9244;50.828;4.718;2024-01-30T11:08:31;11.00;;;8.10;;
18239;SDS011;9244;50.828;4.718;2024-01-30T11:10:58;13.97;;;9.07;;
18239;SDS011;9244;50.828;4.718;2024-01-30T11:13:26;10.17;;;8.67;;
18239;SDS011;9244;50.828;4.718;2024-01-30T11:15:55;9.67;;;8.67;;
18239;SDS011;9244;50.828;4.718;2024-01-30T11:18:25;10.63;;;8.77;;
18239;SDS011;9244;50.828;4.718;2024-01-30T11:20:55;9.80;;;7.07;;
18239;SDS011;9244;50.828;4.718;2024-01-30T11:23:26;10.03;;;7.60;;
18239;SDS011;9244;50.828;4.718;2024-01-30T11:25:52;11.70;;;8.10;;
18239;SDS011;9244;50.828;4.718;2024-01-30T11:28:18;9.03;;;6.57;;
18239;SDS011;9244;50.828;4.718;2024-01-30T11:30:45;12.33;;;6.80;;
18239;SDS011;9244;50.828;4.718;2024-01-30T11:33:14;9.50;;;4.93;;
18239;SDS011;9244;50.828;4.718;2024-01-30T11:35:40;7.73;;;4.50;;
18239;SDS011;9244;50.828;4.718;2024-01-30T11:38:10;7.07;;;4.20;;
18239;SDS011;9244;50.828;4.718;2024-01-30T11:40:38;9.20;;;4.20;;
18239;SDS011;9244;50.828;4.718;2024-01-30T11:43:05;10.07;;;4.83;;
18239;SDS011;9244;50.828;4.718;2024-01-30T11:45:34;7.07;;;3.03;;
18239;SDS011;9244;50.828;4.718;2024-01-30T11:48:01;5.77;;;3.87;;
18239;SDS011;9244;50.828;4.718;2024-01-30T11:50:30;6.63;;;3.67;;
18239;SDS011;9244;50.828;4.718;2024-01-30T11:52:57;4.57;;;2.93;;
18239;SDS011;9244;50.828;4.718;2024-01-30T11:55:31;3.87;;;2.83;;
18239;SDS011;9244;50.828;4.718;2024-01-30T11:57:57;7.03;;;2.70;;
18239;SDS011;9244;50.828;4.718;2024-01-30T12:00:23;6.47;;;2.93;;
18239;SDS011;9244;50.828;4.718;2024-01-30T12:02:52;4.17;;;1.87;;
18239;SDS011;9244;50.828;4.718;2024-01-30T12:05:23;5.03;;;2.10;;
18239;SDS011;9244;50.828;4.718;2024-01-30T12:07:51;6.20;;;2.30;;
18239;SDS011;9244;50.828;4.718;2024-01-30T12:10:17;7.37;;;2.60;;
18239;SDS011;9244;50.828;4.718;2024-01-30T12:12:46;6.27;;;2.00;;
18239;SDS011;9244;50.828;4.718;2024-01-30T12:15:14;3.40;;;1.60;;
18239;SDS011;9244;50.828;4.718;2024-01-30T12:17:40;4.17;;;1.43;;
18239;SDS011;9244;50.828;4.718;2024-01-30T12:22:36;5.70;;;1.20;;
18239;SDS011;9244;50.828;4.718;2024-01-30T12:25:08;3.03;;;1.10;;
18239;SDS011;9244;50.828;4.718;2024-01-30T12:27:54;2.73;;;1.23;;
18239;SDS011;9244;50.828;4.718;2024-01-30T12:30:20;2.13;;;1.03;;
18239;SDS011;9244;50.828;4.718;2024-01-30T12:32:46;2.33;;;1.00;;
18239;SDS011;9244;50.828;4.718;2024-01-30T12:35:17;3.83;;;0.93;;
18239;SDS011;9244;50.828;4.718;2024-01-30T12:37:44;2.10;;;0.70;;
18239;SDS011;9244;50.828;4.718;2024-01-30T12:40:11;1.93;;;1.00;;
18239;SDS011;9244;50.828;4.718;2024-01-30T12:42:39;3.10;;;0.80;;
18239;SDS011;9244;50.828;4.718;2024-01-30T12:45:11;1.53;;;0.80;;
18239;SDS011;9244;50.828;4.718;2024-01-30T12:47:37;3.23;;;0.60;;
18239;SDS011;9244;50.828;4.718;2024-01-30T12:50:02;0.90;;;0.50;;
18239;SDS011;9244;50.828;4.718;2024-01-30T12:52:28;2.80;;;0.67;;
18239;SDS011;9244;50.828;4.718;2024-01-30T12:54:57;4.53;;;0.70;;
18239;SDS011;9244;50.828;4.718;2024-01-30T12:57:22;2.53;;;0.90;;
18239;SDS011;9244;50.828;4.718;2024-01-30T12:59:48;1.80;;;0.70;;
18239;SDS011;9244;50.828;4.718;2024-01-30T13:02:16;1.60;;;0.70;;
18239;SDS011;9244;50.828;4.718;2024-01-30T13:04:42;3.00;;;0.80;;
18239;SDS011;9244;50.828;4.718;2024-01-30T13:07:08;2.20;;;0.60;;
18239;SDS011;9244;50.828;4.718;2024-01-30T13:09:34;2.83;;;0.60;;
18239;SDS011;9244;50.828;4.718;2024-01-30T13:12:00;2.47;;;0.87;;
18239;SDS011;9244;50.828;4.718;2024-01-30T13:14:25;5.50;;;1.73;;
18239;SDS011;9244;50.828;4.718;2024-01-30T13:16:51;1.23;;;0.90;;
18239;SDS011;9244;50.828;4.718;2024-01-30T13:19:17;1.87;;;0.50;;
18239;SDS011;9244;50.828;4.718;2024-01-30T13:21:43;1.30;;;0.50;;
18239;SDS011;9244;50.828;4.718;2024-01-30T13:24:11;1.80;;;0.70;;
18239;SDS011;9244;50.828;4.718;2024-01-30T13:26:37;1.97;;;0.50;;
18239;SDS011;9244;50.828;4.718;2024-01-30T13:29:02;2.03;;;0.60;;
18239;SDS011;9244;50.828;4.718;2024-01-30T13:31:28;1.70;;;0.57;;
18239;SDS011;9244;50.828;4.718;2024-01-30T13:33:55;1.07;;;0.80;;
18239;SDS011;9244;50.828;4.718;2024-01-30T13:36:22;2.60;;;0.73;;
18239;SDS011;9244;50.828;4.718;2024-01-30T13:38:48;1.90;;;0.70;;
18239;SDS011;9244;50.828;4.718;2024-01-30T13:41:14;1.73;;;0.40;;
18239;SDS011;9244;50.828;4.718;2024-01-30T13:43:40;1.07;;;0.40;;
18239;SDS011;9244;50.828;4.718;2024-01-30T13:46:05;1.80;;;0.60;;
18239;SDS011;9244;50.828;4.718;2024-01-30T13:48:31;1.60;;;0.60;;
18239;SDS011;9244;50.828;4.718;2024-01-30T13:50:57;3.07;;;0.60;;
18239;SDS011;9244;50.828;4.718;2024-01-30T13:53:25;6.20;;;1.50;;
18239;SDS011;9244;50.828;4.718;2024-01-30T13:55:50;1.93;;;0.90;;
18239;SDS011;9244;50.828;4.718;2024-01-30T13:58:16;2.13;;;0.60;;
18239;SDS011;9244;50.828;4.718;2024-01-30T14:00:42;2.80;;;0.80;;
18239;SDS011;9244;50.828;4.718;2024-01-30T14:03:07;2.63;;;0.90;;
18239;SDS011;9244;50.828;4.718;2024-01-30T14:05:33;2.87;;;0.80;;
18239;SDS011;9244;50.828;4.718;2024-01-30T14:07:59;3.33;;;1.00;;
18239;SDS011;9244;50.828;4.718;2024-01-30T14:10:25;2.87;;;1.20;;
18239;SDS011;9244;50.828;4.718;2024-01-30T14:12:51;3.00;;;1.00;;
18239;SDS011;9244;50.828;4.718;2024-01-30T14:15:17;4.63;;;0.90;;
18239;SDS011;9244;50.828;4.718;2024-01-30T14:17:46;4.20;;;0.93;;
18239;SDS011;9244;50.828;4.718;2024-01-30T14:20:13;1.27;;;0.70;;
18239;SDS011;9244;50.828;4.718;2024-01-30T14:22:39;1.63;;;0.57;;
18239;SDS011;9244;50.828;4.718;2024-01-30T14:25:05;1.77;;;1.10;;
18239;SDS011;9244;50.828;4.718;2024-01-30T14:27:36;2.87;;;0.90;;
18239;SDS011;9244;50.828;4.718;2024-01-30T14:30:02;2.57;;;0.73;;
18239;SDS011;9244;50.828;4.718;2024-01-30T14:32:30;1.80;;;0.70;;
18239;SDS011;9244;50.828;4.718;2024-01-30T14:34:56;1.83;;;1.00;;
18239;SDS011;9244;50.828;4.718;2024-01-30T14:37:21;3.00;;;1.20;;
18239;SDS011;9244;50.828;4.718;2024-01-30T14:39:50;4.60;;;0.80;;
18239;SDS011;9244;50.828;4.718;2024-01-30T14:42:15;1.83;;;0.80;;
18239;SDS011;9244;50.828;4.718;2024-01-30T14:44:43;1.37;;;0.90;;
18239;SDS011;9244;50.828;4.718;2024-01-30T14:47:09;2.97;;;0.90;;
18239;SDS011;9244;50.828;4.718;2024-01-30T14:49:35;1.13;;;0.70;;
18239;SDS011;9244;50.828;4.718;2024-01-30T14:52:00;2.20;;;0.80;;
18239;SDS011;9244;50.828;4.718;2024-01-30T14:54:29;2.67;;;1.10;;
18239;SDS011;9244;50.828;4.718;2024-01-30T14:56:57;2.07;;;1.10;;
18239;SDS011;9244;50.828;4.718;2024-01-30T14:59:24;2.67;;;1.00;;
18239;SDS011;9244;50.828;4.718;2024-01-30T15:01:50;2.63;;;1.00;;
18239;SDS011;9244;50.828;4.718;2024-01-30T15:04:18;5.63;;;1.07;;